createdAt,value
2019-01-23T00:00:49.669Z,26.97
2019-01-23T00:03:21.080Z,27.22
2019-01-23T00:05:52.171Z,25.77
2019-01-23T00:08:23.920Z,25.27
2019-01-23T00:10:55.393Z,25.55
2019-01-23T00:13:26.671Z,27.67
2019-01-23T00:15:57.772Z,25.27
2019-01-23T00:18:29.348Z,27.13
2019-01-23T00:21:00.737Z,25.08
2019-01-23T00:23:32.227Z,24.80
2019-01-23T00:26:03.158Z,22.83
2019-01-23T00:28:33.786Z,23.93
2019-01-23T00:31:04.891Z,24.43
2019-01-23T00:33:35.789Z,24.00
2019-01-23T00:36:06.781Z,24.97
2019-01-23T00:38:37.445Z,23.67
2019-01-23T00:41:08.205Z,25.97
2019-01-23T00:43:38.805Z,26.93
2019-01-23T00:46:09.502Z,26.53
2019-01-23T00:48:40.134Z,26.10
2019-01-23T00:51:10.743Z,25.63
2019-01-23T00:53:41.995Z,23.07
2019-01-23T00:56:13.095Z,24.23
2019-01-23T00:58:49.168Z,24.23
2019-01-23T01:01:17.045Z,24.53
2019-01-23T01:03:48.097Z,24.43
2019-01-23T01:06:19.160Z,25.00
2019-01-23T01:08:50.427Z,25.43
2019-01-23T01:11:21.688Z,24.93
2019-01-23T01:13:52.849Z,25.33
2019-01-23T01:16:24.008Z,23.97
2019-01-23T01:18:55.077Z,23.83
2019-01-23T01:21:27.105Z,23.67
2019-01-23T01:23:57.829Z,24.20
2019-01-23T01:26:29.791Z,23.15
2019-01-23T01:29:00.408Z,24.50
2019-01-23T01:31:31.481Z,24.90
2019-01-23T01:34:02.721Z,24.00
2019-01-23T01:36:34.871Z,24.53
2019-01-23T01:39:09.604Z,23.50
2019-01-23T01:41:41.084Z,23.50
2019-01-23T01:44:12.176Z,24.87
2019-01-23T01:46:43.676Z,24.10
2019-01-23T01:49:15.044Z,23.75
2019-01-23T01:51:46.160Z,25.52
2019-01-23T01:54:18.004Z,24.43
2019-01-23T01:56:49.492Z,24.30
2019-01-23T01:59:20.935Z,24.57
2019-01-23T02:01:51.608Z,23.60
2019-01-23T02:04:22.145Z,26.85
2019-01-23T02:06:53.094Z,23.63
2019-01-23T02:09:23.800Z,25.63
2019-01-23T02:11:55.211Z,25.57
2019-01-23T02:14:26.684Z,24.53
2019-01-23T02:16:57.897Z,23.90
2019-01-23T02:19:31.728Z,29.17
2019-01-23T02:22:03.155Z,29.93
2019-01-23T02:24:34.410Z,28.70
2019-01-23T02:27:06.946Z,27.75
2019-01-23T02:29:38.418Z,28.13
2019-01-23T02:32:10.467Z,29.27
2019-01-23T02:34:42.443Z,27.63
2019-01-23T02:37:13.495Z,29.80
2019-01-23T02:39:44.608Z,28.33
2019-01-23T02:42:15.341Z,29.37
2019-01-23T02:44:46.295Z,30.57
2019-01-23T02:47:17.276Z,30.97
2019-01-23T02:49:48.413Z,30.63
2019-01-23T02:52:19.716Z,28.30
2019-01-23T02:54:50.568Z,28.57
2019-01-23T02:57:21.737Z,27.83
2019-01-23T02:59:53.693Z,28.43
2019-01-23T03:02:25.921Z,27.62
2019-01-23T03:04:57.754Z,28.57
2019-01-23T03:07:28.984Z,30.07
2019-01-23T03:10:00.591Z,29.53
2019-01-23T03:12:31.844Z,27.20
2019-01-23T03:15:03.001Z,28.67
2019-01-23T03:17:34.559Z,29.13
2019-01-23T03:20:07.087Z,27.03
2019-01-23T03:22:38.639Z,28.80
2019-01-23T03:25:11.500Z,30.37
2019-01-23T03:27:43.029Z,26.17
2019-01-23T03:30:17.868Z,27.20
2019-01-23T03:32:49.466Z,29.17
2019-01-23T03:35:20.757Z,29.55
2019-01-23T03:37:51.499Z,28.13
2019-01-23T03:40:23.226Z,29.87
2019-01-23T03:42:53.964Z,26.50
2019-01-23T03:45:24.750Z,27.40
2019-01-23T03:47:56.097Z,27.50
2019-01-23T03:50:27.664Z,28.33
2019-01-23T03:52:59.627Z,26.70
2019-01-23T03:55:30.832Z,27.67
2019-01-23T03:58:02.009Z,26.93
2019-01-23T04:00:33.239Z,28.30
2019-01-23T04:03:05.549Z,27.77
2019-01-23T04:05:37.089Z,27.50
2019-01-23T04:08:08.153Z,29.50
2019-01-23T04:10:39.457Z,27.07
2019-01-23T04:13:10.105Z,27.10
2019-01-23T04:15:40.824Z,27.90
2019-01-23T04:18:11.997Z,28.23
2019-01-23T04:20:42.999Z,26.93
2019-01-23T04:23:14.135Z,27.13
2019-01-23T04:25:48.999Z,29.23
2019-01-23T04:28:20.132Z,28.70
2019-01-23T04:30:51.319Z,26.67
2019-01-23T04:33:22.580Z,27.50
2019-01-23T04:35:53.791Z,27.70
2019-01-23T04:38:25.201Z,29.40
2019-01-23T04:40:56.367Z,26.13
2019-01-23T04:43:27.467Z,29.50
2019-01-23T04:45:58.683Z,30.00
2019-01-23T04:48:30.175Z,27.80
2019-01-23T04:51:12.240Z,27.43
2019-01-23T04:53:45.079Z,30.37
2019-01-23T04:56:15.891Z,29.30
2019-01-23T04:58:46.797Z,28.60
2019-01-23T05:01:17.548Z,29.10
2019-01-23T05:03:48.511Z,28.37
2019-01-23T05:06:19.160Z,29.50
2019-01-23T05:08:49.892Z,27.73
2019-01-23T05:11:20.995Z,30.20
2019-01-23T05:13:52.552Z,29.25
2019-01-23T05:16:23.265Z,29.13
2019-01-23T05:18:54.091Z,30.43
2019-01-23T05:21:25.648Z,29.87
2019-01-23T05:23:56.666Z,29.60
2019-01-23T05:26:27.443Z,27.50
2019-01-23T05:28:58.470Z,29.18
2019-01-23T05:31:29.489Z,28.97
2019-01-23T05:34:00.571Z,30.30
2019-01-23T05:36:31.347Z,29.03
2019-01-23T05:39:02.392Z,29.60
2019-01-23T05:41:33.387Z,31.83
2019-01-23T05:44:04.818Z,31.03
2019-01-23T05:46:37.156Z,31.87
2019-01-23T05:49:08.330Z,30.63
2019-01-23T05:51:39.030Z,33.20
2019-01-23T05:54:09.766Z,30.53
2019-01-23T05:56:41.466Z,33.27
2019-01-23T05:59:12.548Z,32.37
2019-01-23T06:01:44.156Z,30.17
2019-01-23T06:04:14.973Z,32.17
2019-01-23T06:06:45.987Z,31.10
2019-01-23T06:09:16.961Z,30.17
2019-01-23T06:11:47.738Z,31.10
2019-01-23T06:14:18.766Z,30.50
2019-01-23T06:16:49.493Z,31.75
2019-01-23T06:19:20.224Z,29.40
2019-01-23T06:21:50.976Z,30.30
2019-01-23T06:24:21.785Z,30.63
2019-01-23T06:26:52.873Z,30.57
2019-01-23T06:29:23.952Z,29.10
2019-01-23T06:31:54.646Z,30.37
2019-01-23T06:34:26.555Z,31.20
2019-01-23T06:36:57.524Z,28.97
2019-01-23T06:39:28.876Z,31.03
2019-01-23T06:41:59.939Z,30.87
2019-01-23T06:44:30.643Z,33.30
2019-01-23T06:47:01.923Z,30.92
2019-01-23T06:49:32.659Z,30.93
2019-01-23T06:52:05.497Z,29.97
2019-01-23T06:54:36.509Z,30.37
2019-01-23T06:57:07.671Z,30.30
2019-01-23T06:59:38.945Z,28.30
2019-01-23T07:02:09.695Z,28.47
2019-01-23T07:04:40.814Z,29.47
2019-01-23T07:07:11.527Z,28.83
2019-01-23T07:09:42.413Z,28.93
2019-01-23T07:12:13.204Z,29.27
2019-01-23T07:14:44.117Z,30.53
2019-01-23T07:17:15.359Z,28.90
2019-01-23T07:19:46.399Z,28.67
2019-01-23T07:22:17.491Z,30.17
2019-01-23T07:24:48.146Z,29.33
2019-01-23T07:27:18.965Z,29.20
2019-01-23T07:29:49.598Z,27.13
2019-01-23T07:32:20.526Z,32.07
2019-01-23T07:34:51.262Z,30.00
2019-01-23T07:37:22.079Z,30.73
2019-01-23T07:39:52.802Z,28.97
2019-01-23T07:42:23.957Z,29.00
2019-01-23T07:44:54.785Z,28.80
2019-01-23T07:47:25.870Z,29.03
2019-01-23T07:49:56.979Z,29.72
2019-01-23T07:52:28.056Z,30.57
2019-01-23T07:54:59.127Z,32.33
2019-01-23T07:57:30.503Z,31.23
2019-01-23T08:00:01.548Z,32.17
2019-01-23T08:02:32.238Z,29.53
2019-01-23T08:05:03.557Z,31.93
2019-01-23T08:07:34.301Z,30.67
2019-01-23T08:10:06.349Z,29.90
2019-01-23T08:12:37.362Z,31.43
2019-01-23T08:15:15.570Z,31.77
2019-01-23T08:17:46.299Z,31.17
2019-01-23T08:20:18.886Z,32.00
2019-01-23T08:22:49.620Z,30.70
2019-01-23T08:25:20.940Z,30.87
2019-01-23T08:27:51.745Z,31.03
2019-01-23T08:30:22.719Z,31.30
2019-01-23T08:32:53.865Z,30.50
2019-01-23T08:35:24.763Z,32.20
2019-01-23T08:37:56.174Z,33.13
2019-01-23T08:40:26.952Z,30.60
2019-01-23T08:42:58.174Z,32.37
2019-01-23T08:45:28.831Z,34.17
2019-01-23T08:47:59.555Z,32.00
2019-01-23T08:50:43.006Z,31.73
2019-01-23T08:53:14.251Z,32.27
2019-01-23T08:55:44.910Z,31.10
2019-01-23T08:58:16.309Z,28.73
2019-01-23T09:00:47.665Z,31.70
2019-01-23T09:03:18.309Z,32.47
2019-01-23T09:05:49.290Z,31.80
2019-01-23T09:08:20.330Z,31.70
2019-01-23T09:10:51.377Z,32.73
2019-01-23T09:13:22.555Z,32.43
2019-01-23T09:15:53.499Z,31.93
2019-01-23T09:18:24.237Z,32.70
2019-01-23T09:20:55.920Z,29.50
2019-01-23T09:23:26.955Z,34.83
2019-01-23T09:25:57.694Z,32.90
2019-01-23T09:28:28.414Z,31.33
2019-01-23T09:31:59.378Z,33.50
2019-01-23T09:35:40.887Z,31.90
2019-01-23T09:39:24.236Z,32.03
2019-01-23T09:43:01.689Z,32.38
2019-01-23T09:46:00.017Z,32.47
2019-01-23T09:49:14.155Z,34.30
2019-01-23T09:52:54.123Z,33.90
2019-01-23T09:55:25.245Z,32.80
2019-01-23T09:58:00.041Z,36.00
2019-01-23T10:00:31.828Z,32.03
2019-01-23T10:03:02.882Z,36.03
2019-01-23T10:05:33.957Z,33.28
2019-01-23T10:08:05.577Z,34.30
2019-01-23T10:10:36.584Z,37.10
2019-01-23T10:13:07.346Z,37.10
2019-01-23T10:15:54.147Z,37.37
2019-01-23T10:18:24.859Z,37.30
2019-01-23T10:20:55.901Z,36.97
2019-01-23T10:23:27.485Z,34.90
2019-01-23T10:25:58.316Z,36.23
2019-01-23T10:28:29.234Z,35.07
2019-01-23T10:31:06.417Z,38.13
2019-01-23T10:33:33.117Z,36.03
2019-01-23T10:36:04.562Z,38.07
2019-01-23T10:38:35.717Z,35.50
2019-01-23T10:41:07.425Z,35.77
2019-01-23T10:43:38.552Z,35.07
2019-01-23T10:46:09.624Z,38.50
2019-01-23T10:48:40.587Z,38.30
2019-01-23T10:51:12.124Z,36.37
2019-01-23T10:53:43.206Z,37.63
2019-01-23T10:56:15.530Z,39.13
2019-01-23T10:58:51.938Z,38.07
2019-01-23T11:01:23.831Z,37.50
2019-01-23T11:03:55.040Z,35.45
2019-01-23T11:06:25.860Z,36.93
2019-01-23T11:08:58.414Z,39.83
2019-01-23T11:11:29.134Z,38.07
2019-01-23T11:14:00.299Z,37.40
2019-01-23T11:16:31.421Z,36.57
2019-01-23T11:19:03.326Z,37.20
2019-01-23T11:21:33.979Z,38.70
2019-01-23T11:24:05.671Z,36.20
2019-01-23T11:26:36.510Z,37.70
2019-01-23T11:29:07.311Z,38.40
2019-01-23T11:31:38.041Z,37.78
2019-01-23T11:34:08.910Z,36.83
2019-01-23T11:36:39.629Z,35.77
2019-01-23T11:39:22.744Z,38.40
2019-01-23T11:41:55.904Z,34.95
2019-01-23T11:44:26.655Z,36.53
2019-01-23T11:46:57.723Z,36.50
2019-01-23T11:49:28.863Z,35.10
2019-01-23T11:52:00.111Z,36.65
2019-01-23T11:54:30.889Z,35.45
2019-01-23T11:57:01.635Z,36.93
2019-01-23T11:59:32.372Z,36.93
2019-01-23T12:02:03.158Z,36.83
2019-01-23T12:04:34.183Z,36.50
2019-01-23T12:07:05.306Z,36.33
2019-01-23T12:09:36.371Z,36.80
2019-01-23T12:12:07.516Z,38.13
2019-01-23T12:14:38.192Z,34.87
2019-01-23T12:17:09.462Z,34.70
2019-01-23T12:19:40.468Z,36.90
2019-01-23T12:22:11.238Z,37.57
2019-01-23T12:24:42.263Z,34.87
2019-01-23T12:27:13.343Z,34.40
2019-01-23T12:29:44.335Z,35.80
2019-01-23T12:32:15.133Z,35.17
2019-01-23T12:34:45.911Z,33.77
2019-01-23T12:37:17.202Z,34.80
2019-01-23T12:39:48.828Z,33.17
2019-01-23T12:42:19.484Z,33.37
2019-01-23T12:44:50.125Z,33.87
2019-01-23T12:47:21.233Z,32.43
2019-01-23T12:49:52.364Z,33.58
2019-01-23T12:52:23.702Z,33.07
2019-01-23T12:54:54.559Z,34.93
2019-01-23T12:57:25.318Z,32.80
2019-01-23T12:59:56.395Z,33.67
2019-01-23T13:02:27.240Z,34.10
2019-01-23T13:04:58.546Z,33.67
2019-01-23T13:07:33.400Z,34.33
2019-01-23T13:10:01.658Z,34.33
2019-01-23T13:12:32.575Z,33.57
2019-01-23T13:15:03.299Z,32.87
2019-01-23T13:17:34.077Z,32.47
2019-01-23T13:20:05.933Z,32.70
2019-01-23T13:22:36.662Z,33.13
2019-01-23T13:25:11.421Z,33.00
2019-01-23T13:27:42.413Z,31.63
2019-01-23T13:30:17.215Z,31.35
2019-01-23T13:32:48.278Z,31.45
2019-01-23T13:35:22.903Z,30.73
2019-01-23T13:37:53.901Z,30.73
2019-01-23T13:40:33.931Z,31.47
2019-01-23T13:43:05.835Z,28.77
2019-01-23T13:45:36.561Z,28.83
2019-01-23T13:48:09.506Z,31.80
2019-01-23T13:50:40.442Z,31.53
2019-01-23T13:53:11.999Z,30.23
2019-01-23T13:55:43.046Z,31.20
2019-01-23T13:58:13.775Z,30.13
2019-01-23T14:00:44.783Z,29.53
2019-01-23T14:03:16.680Z,30.57
2019-01-23T14:05:47.413Z,29.43
2019-01-23T14:08:18.087Z,31.50
2019-01-23T14:10:48.855Z,28.90
2019-01-23T14:13:19.891Z,29.27
2019-01-23T14:15:50.942Z,30.70
2019-01-23T14:18:22.188Z,31.33
2019-01-23T14:20:52.895Z,29.03
2019-01-23T14:23:23.734Z,26.17
2019-01-23T14:25:55.103Z,26.50
2019-01-23T14:28:26.221Z,27.07
2019-01-23T14:30:57.719Z,28.60
2019-01-23T14:33:28.518Z,27.47
2019-01-23T14:35:59.342Z,25.37
2019-01-23T14:38:30.688Z,28.07
2019-01-23T14:41:01.790Z,25.93
2019-01-23T14:43:32.495Z,27.90
2019-01-23T14:46:03.601Z,29.20
2019-01-23T14:48:34.359Z,28.17
2019-01-23T14:51:05.157Z,27.77
2019-01-23T14:53:36.460Z,29.50
2019-01-23T14:56:07.277Z,27.77
2019-01-23T14:58:37.995Z,28.27
2019-01-23T15:01:08.711Z,27.43
2019-01-23T15:03:40.041Z,26.23
2019-01-23T15:06:11.088Z,25.95
2019-01-23T15:08:41.832Z,26.27
2019-01-23T15:11:12.802Z,27.37
2019-01-23T15:13:43.694Z,27.93
2019-01-23T15:16:14.890Z,28.93
2019-01-23T15:18:46.329Z,25.33
2019-01-23T15:21:17.405Z,26.37
2019-01-23T15:23:48.223Z,27.73
2019-01-23T15:26:19.076Z,27.32
2019-01-23T15:28:49.860Z,27.57
2019-01-23T15:31:21.596Z,28.77
2019-01-23T15:33:52.362Z,29.20
2019-01-23T15:36:23.094Z,30.30
2019-01-23T15:38:54.095Z,29.13
2019-01-23T15:41:25.912Z,28.63
2019-01-23T15:43:56.638Z,28.38
2019-01-23T15:46:27.362Z,28.23
2019-01-23T15:48:58.060Z,29.50
2019-01-23T15:51:29.018Z,27.80
2019-01-23T15:54:00.351Z,29.10
2019-01-23T15:56:31.369Z,28.63
2019-01-23T15:59:02.166Z,27.60
2019-01-23T16:01:32.867Z,28.37
2019-01-23T16:04:03.573Z,28.80
2019-01-23T16:06:34.208Z,31.12
2019-01-23T16:13:23.244Z,31.03
2019-01-23T16:15:53.985Z,39.98
2019-01-23T16:18:24.946Z,33.73
2019-01-23T16:20:56.923Z,32.60
2019-01-23T16:23:27.845Z,34.83
2019-01-23T16:25:58.485Z,33.23
2019-01-23T16:28:29.165Z,32.03
2019-01-23T16:30:59.805Z,33.97
2019-01-23T16:33:30.485Z,34.20
2019-01-23T16:36:01.451Z,34.53
2019-01-23T16:38:32.901Z,36.20
2019-01-23T16:41:04.107Z,35.27
2019-01-23T16:43:34.780Z,35.53
2019-01-23T16:46:05.476Z,34.27
2019-01-23T16:48:36.105Z,37.50
2019-01-23T16:51:07.151Z,34.63
2019-01-23T16:53:38.717Z,32.80
2019-01-23T16:56:10.339Z,38.60
2019-01-23T16:58:41.342Z,37.30
2019-01-23T17:01:12.650Z,36.83
2019-01-23T17:03:43.580Z,38.73
2019-01-23T17:06:14.357Z,38.90
2019-01-23T17:08:44.945Z,38.20
2019-01-23T17:11:15.836Z,37.90
2019-01-23T17:13:46.799Z,37.30
2019-01-23T17:16:17.462Z,37.27
2019-01-23T17:18:48.051Z,36.57
2019-01-23T17:21:19.147Z,37.17
2019-01-23T17:23:50.055Z,38.07
2019-01-23T17:26:21.021Z,37.37
2019-01-23T17:28:52.358Z,39.13
2019-01-23T17:31:23.389Z,38.80
2019-01-23T17:33:54.369Z,39.05
2019-01-23T17:36:25.398Z,41.20
2019-01-23T17:38:56.380Z,40.97
2019-01-23T17:41:27.339Z,40.90
2019-01-23T17:43:58.693Z,41.80
2019-01-23T17:46:30.313Z,41.20
2019-01-23T17:49:01.303Z,42.27
2019-01-23T17:51:32.317Z,45.33
2019-01-23T17:54:03.504Z,42.57
2019-01-23T17:56:34.429Z,44.23
2019-01-23T17:59:05.096Z,44.87
2019-01-23T18:01:36.549Z,46.77
2019-01-23T18:04:08.319Z,46.88
2019-01-23T18:06:39.666Z,46.67
2019-01-23T18:09:11.572Z,47.60
2019-01-23T18:11:42.529Z,45.80
2019-01-23T18:14:14.296Z,49.55
2019-01-23T18:16:45.622Z,48.90
2019-01-23T18:19:16.621Z,50.47
2019-01-23T18:21:48.259Z,50.47
2019-01-23T18:24:19.227Z,49.23
2019-01-23T18:26:50.178Z,49.90
2019-01-23T18:29:22.318Z,51.10
2019-01-23T18:32:00.674Z,54.60
2019-01-23T18:35:49.721Z,52.97
2019-01-23T18:39:05.320Z,51.43
2019-01-23T18:42:20.333Z,49.67
2019-01-23T18:45:47.318Z,51.40
2019-01-23T18:49:22.840Z,51.70
2019-01-23T18:52:06.927Z,55.10
2019-01-23T18:54:37.557Z,54.67
2019-01-23T18:57:11.349Z,52.70
2019-01-23T18:59:43.129Z,54.93
2019-01-23T19:02:14.596Z,54.90
2019-01-23T19:04:45.558Z,55.93
2019-01-23T19:07:16.586Z,51.47
2019-01-23T19:09:47.607Z,56.28
2019-01-23T19:12:18.766Z,52.75
2019-01-23T19:14:49.735Z,54.07
2019-01-23T19:17:20.735Z,53.47
2019-01-23T19:19:52.051Z,54.80
2019-01-23T19:22:23.128Z,54.60
2019-01-23T19:24:54.381Z,53.10
2019-01-23T19:27:25.384Z,51.53
2019-01-23T19:29:56.401Z,54.53
2019-01-23T19:32:27.068Z,56.63
2019-01-23T19:34:58.015Z,52.60
2019-01-23T19:37:28.622Z,54.85
2019-01-23T19:39:59.513Z,52.23
2019-01-23T19:42:30.520Z,50.63
2019-01-23T19:45:01.477Z,52.77
2019-01-23T19:47:32.429Z,52.88
2019-01-23T19:50:04.573Z,48.47
2019-01-23T19:52:35.527Z,51.33
2019-01-23T19:55:07.728Z,49.60
2019-01-23T19:57:38.384Z,48.33
2019-01-23T20:00:15.371Z,50.15
2019-01-23T20:02:46.212Z,48.83
2019-01-23T20:05:21.425Z,49.90
2019-01-23T20:07:52.312Z,50.85
2019-01-23T20:10:24.281Z,49.03
2019-01-23T20:12:54.949Z,52.00
2019-01-23T20:15:25.683Z,49.30
2019-01-23T20:18:01.039Z,48.73
2019-01-23T20:20:31.706Z,49.17
2019-01-23T20:23:02.739Z,51.30
2019-01-23T20:25:33.468Z,47.27
2019-01-23T20:28:07.396Z,49.67
2019-01-23T20:30:41.002Z,45.73
2019-01-23T20:33:11.606Z,49.60
2019-01-23T20:35:42.307Z,51.13
2019-01-23T20:38:13.011Z,48.13
2019-01-23T20:40:43.613Z,49.63
2019-01-23T20:43:14.262Z,46.70
2019-01-23T20:45:44.866Z,47.77
2019-01-23T20:48:15.594Z,47.63
2019-01-23T20:50:46.548Z,44.37
2019-01-23T20:53:17.182Z,46.60
2019-01-23T20:55:48.080Z,46.73
2019-01-23T20:58:18.757Z,42.70
2019-01-23T21:00:49.389Z,43.43
2019-01-23T21:03:20.907Z,41.02
2019-01-23T21:05:52.277Z,42.97
2019-01-23T21:08:22.957Z,42.67
2019-01-23T21:10:53.574Z,37.10
2019-01-23T21:13:24.629Z,39.57
2019-01-23T21:15:55.294Z,42.97
2019-01-23T21:18:25.885Z,42.25
2019-01-23T21:20:56.463Z,42.73
2019-01-23T21:23:27.359Z,39.80
2019-01-23T21:25:57.926Z,44.33
2019-01-23T21:28:28.593Z,38.88
2019-01-23T21:30:59.307Z,39.67
2019-01-23T21:33:30.227Z,38.43
2019-01-23T21:36:00.856Z,39.23
2019-01-23T21:38:31.728Z,42.20
2019-01-23T21:41:02.340Z,41.20
2019-01-23T21:43:33.068Z,38.93
2019-01-23T21:46:03.963Z,38.13
2019-01-23T21:48:34.575Z,37.10
2019-01-23T21:51:05.857Z,32.60
2019-01-23T21:53:36.464Z,36.90
2019-01-23T21:56:07.199Z,37.47
2019-01-23T21:58:37.849Z,36.43
2019-01-23T22:01:08.494Z,37.03
2019-01-23T22:03:39.148Z,37.03
2019-01-23T22:06:09.952Z,34.30
2019-01-23T22:08:40.551Z,33.27
2019-01-23T22:11:11.822Z,33.18
2019-01-23T22:13:42.774Z,32.53
2019-01-23T22:16:13.434Z,30.50
2019-01-23T22:18:44.257Z,33.13
2019-01-23T22:21:18.814Z,26.87
2019-01-23T22:23:50.979Z,27.23
2019-01-23T22:26:21.875Z,24.07
2019-01-23T22:28:52.556Z,25.67
2019-01-23T22:31:25.060Z,27.87
2019-01-23T22:33:56.766Z,23.00
2019-01-23T22:36:27.809Z,25.17
2019-01-23T22:38:58.682Z,24.87
2019-01-23T22:41:29.303Z,22.95
2019-01-23T22:44:00.242Z,24.43
2019-01-23T22:46:31.137Z,25.10
2019-01-23T22:49:01.820Z,23.12
2019-01-23T22:51:32.795Z,23.63
2019-01-23T22:54:03.706Z,21.87
2019-01-23T22:56:34.384Z,26.73
2019-01-23T22:59:05.404Z,23.70
2019-01-23T23:01:36.061Z,23.77
2019-01-23T23:04:06.700Z,22.50
2019-01-23T23:06:37.287Z,25.27
2019-01-23T23:09:10.903Z,21.90
2019-01-23T23:11:41.574Z,21.83
2019-01-23T23:14:13.329Z,22.13
2019-01-23T23:16:44.282Z,19.67
2019-01-23T23:19:14.884Z,19.15
2019-01-23T23:21:45.558Z,21.77
2019-01-23T23:24:16.081Z,21.97
2019-01-23T23:26:46.543Z,20.50
2019-01-23T23:29:17.491Z,19.73
2019-01-23T23:31:48.021Z,16.53
2019-01-23T23:34:18.641Z,20.30
2019-01-23T23:36:51.199Z,18.97
2019-01-23T23:39:22.020Z,18.97
2019-01-23T23:41:52.708Z,18.47
2019-01-23T23:44:23.692Z,18.13
2019-01-23T23:46:55.573Z,20.77
2019-01-23T23:49:26.230Z,19.67
2019-01-23T23:51:58.031Z,20.57
2019-01-23T23:54:29.480Z,21.07
2019-01-23T23:57:02.565Z,18.23
2019-01-23T23:59:33.224Z,20.07
